map of PMV home
Great Circle Mapper logo
PMV - Airport
Location
City:  Porlamar, Isla Margarita, Venezuela
Name:Del Caribe "General Santiago Mariņo" International Airport
ICAO / IATA:SVMG / PMV

Details
Type:Airport (Aerodrome, Airfield)
Use:Public/Civil, International (customs port of entry)
Latitude:10°54'47"N (10.912926)
Longitude:63°58'03"W (-63.967580)
Datum:other
Elevation:74 ft (23 m)
Variation:13.64°W (WMM2015 magnetic declination)
-0.07° annual change
Runways:2
Longest:10499 × 150 ft (3200 × 45.5 m), paved

Time
Time Zone:UTC-4:30
Local Time:

Weather
METAR:SVMG 271000Z /////KT 9999 FEW010 24/23 Q1013 NOSIG
TAF:SVMG 271000Z 2712/2812 05012KT 9999 SCT010 TX32/19Z TN25/09Z
BECMG 2712/2716 02010KT FEW013

Related Locations
Nearby:
Farthest:LOP: 12281 mi / 19764 km
Praya [Lombok Intl], Lombok Island, Nusa Tenggara Barat, ID

Find:

   beyond  
but within

Other Information
Maps:
NOTAMs:
Links:
Sources:

  
flag of Venezuela   

Sectional Chart

Flight Planning
at skyvector.com

Satellite Image

Google Maps Satellite View

 

Copyright © 2004-2015 Karl L. Swartz. All rights reserved.
The Great Circle Mapper name and logo are trademarks of the Great Circle Mapper.
All other trademarks mentioned herein belong to their respective owners.
Please see credits for attibutions and further copyright information.

  Follow gcmap on Facebook Follow gcmap on Twitter Follow gcmap on Google+

hCard Microformat

Geo Microformat